createdAt,value
2019-05-25T00:00:32.507Z,56.10
2019-05-25T00:05:41.391Z,56.10
2019-05-25T00:10:49.918Z,56.60
2019-05-25T00:15:58.832Z,56.50
2019-05-25T00:21:07.536Z,56.70
2019-05-25T00:26:16.309Z,56.90
2019-05-25T00:31:24.935Z,57.20
2019-05-25T00:36:33.579Z,56.70
2019-05-25T00:41:42.276Z,57.20
2019-05-25T00:46:51.093Z,57.60
2019-05-25T00:51:59.818Z,58.20
2019-05-25T00:57:08.628Z,58.00
2019-05-25T01:02:17.278Z,58.00
2019-05-25T01:07:25.817Z,58.10
2019-05-25T01:12:34.817Z,58.70
2019-05-25T01:17:43.577Z,59.20
2019-05-25T01:22:52.271Z,59.30
2019-05-25T01:28:01.197Z,59.60
2019-05-25T01:33:10.202Z,59.60
2019-05-25T01:38:19.006Z,60.00
2019-05-25T01:43:27.771Z,59.60
2019-05-25T01:48:36.366Z,59.60
2019-05-25T01:53:45.107Z,59.70
2019-05-25T01:58:53.770Z,59.50
2019-05-25T02:04:02.725Z,60.30
2019-05-25T02:09:11.594Z,59.90
2019-05-25T02:14:20.418Z,60.00
2019-05-25T02:19:29.044Z,60.00
2019-05-25T02:24:37.749Z,60.10
2019-05-25T02:29:46.434Z,60.40
2019-05-25T02:34:55.007Z,60.40
2019-05-25T02:40:04.694Z,60.90
2019-05-25T02:45:13.551Z,61.20
2019-05-25T02:50:22.321Z,60.80
2019-05-25T02:55:34.859Z,60.90
2019-05-25T03:00:39.783Z,61.70
2019-05-25T03:05:48.812Z,60.90
2019-05-25T03:10:57.518Z,60.80
2019-05-25T03:16:06.311Z,61.30
2019-05-25T03:21:15.129Z,62.10
2019-05-25T03:26:23.885Z,62.30
2019-05-25T03:31:32.764Z,62.30
2019-05-25T03:36:41.620Z,63.00
2019-05-25T03:41:50.427Z,62.90
2019-05-25T03:46:59.269Z,62.70
2019-05-25T03:52:08.141Z,62.50
2019-05-25T03:57:16.872Z,62.50
2019-05-25T04:02:25.621Z,62.40
2019-05-25T04:07:34.199Z,63.20
2019-05-25T04:12:42.834Z,63.30
2019-05-25T04:17:51.531Z,63.30
2019-05-25T04:23:00.160Z,62.90
2019-05-25T04:28:08.987Z,63.40
2019-05-25T04:33:17.721Z,63.30
2019-05-25T04:38:26.391Z,63.20
2019-05-25T04:43:35.111Z,62.90
2019-05-25T04:48:43.841Z,62.90
2019-05-25T04:53:52.593Z,62.40
2019-05-25T04:59:01.259Z,62.20
2019-05-25T05:04:09.910Z,62.20
2019-05-25T05:09:18.713Z,62.20
2019-05-25T05:14:27.511Z,62.40
2019-05-25T05:19:36.303Z,62.30
2019-05-25T05:24:44.973Z,62.20
2019-05-25T05:29:53.666Z,61.60
2019-05-25T05:35:02.678Z,62.60
2019-05-25T05:40:11.650Z,62.00
2019-05-25T05:45:20.385Z,61.70
2019-05-25T05:50:29.056Z,60.90
2019-05-25T05:55:37.854Z,60.10
2019-05-25T06:00:46.493Z,59.10
2019-05-25T06:05:55.356Z,58.60
2019-05-25T06:11:04.202Z,58.20
2019-05-25T06:16:13.107Z,57.80
2019-05-25T06:21:21.976Z,58.70
2019-05-25T06:26:30.689Z,58.70
2019-05-25T06:31:39.455Z,59.00
2019-05-25T06:36:48.440Z,59.00
2019-05-25T06:41:57.268Z,58.10
2019-05-25T06:47:06.062Z,58.10
2019-05-25T06:52:14.902Z,57.70
2019-05-25T06:57:23.804Z,57.20
2019-05-25T07:02:32.475Z,57.60
2019-05-25T07:07:41.368Z,57.30
2019-05-25T07:12:50.243Z,57.00
2019-05-25T07:17:58.940Z,57.30
2019-05-25T07:23:07.763Z,57.30
2019-05-25T07:28:16.430Z,56.50
2019-05-25T07:33:25.288Z,56.60
2019-05-25T07:38:34.083Z,56.60
2019-05-25T07:43:42.712Z,55.40
2019-05-25T07:48:52.193Z,55.20
2019-05-25T07:54:00.897Z,54.00
2019-05-25T07:59:10.759Z,53.00
2019-05-25T08:04:19.579Z,52.70
2019-05-25T08:09:28.273Z,51.70
2019-05-25T08:14:36.995Z,49.00
2019-05-25T08:19:45.819Z,48.90
2019-05-25T08:24:54.583Z,47.10
2019-05-25T08:30:04.209Z,48.50
2019-05-25T08:35:13.313Z,45.90
2019-05-25T08:40:22.035Z,45.90
2019-05-25T08:45:30.839Z,47.10
2019-05-25T08:50:39.543Z,44.90
2019-05-25T08:55:48.425Z,43.40
2019-05-25T09:00:57.159Z,42.90
2019-05-25T09:06:05.865Z,40.40
2019-05-25T09:11:14.516Z,40.50
2019-05-25T09:16:23.347Z,40.20
2019-05-25T09:21:32.012Z,39.30
2019-05-25T09:26:40.663Z,39.00
2019-05-25T09:31:49.594Z,39.10
2019-05-25T09:36:58.390Z,39.10
2019-05-25T09:42:07.205Z,38.10
2019-05-25T09:47:15.779Z,36.30
2019-05-25T09:52:24.697Z,36.90
2019-05-25T09:57:33.558Z,36.10
2019-05-25T10:02:42.912Z,36.00
2019-05-25T10:07:51.468Z,32.20
2019-05-25T10:13:00.208Z,30.90
2019-05-25T10:18:09.007Z,32.30
2019-05-25T10:23:17.874Z,33.00
2019-05-25T10:28:26.524Z,32.80
2019-05-25T10:33:35.193Z,33.00
2019-05-25T10:38:43.911Z,32.70
2019-05-25T10:43:52.751Z,30.10
2019-05-25T10:49:01.575Z,30.30
2019-05-25T10:54:10.452Z,32.00
2019-05-25T10:59:19.383Z,29.30
2019-05-25T11:04:28.279Z,29.60
2019-05-25T11:09:36.916Z,28.40
2019-05-25T11:14:45.592Z,29.20
2019-05-25T11:19:54.380Z,28.40
2019-05-25T11:25:03.930Z,28.10
2019-05-25T11:30:12.785Z,28.40
2019-05-25T11:35:21.715Z,29.90
2019-05-25T11:40:30.517Z,29.60
2019-05-25T11:45:39.279Z,27.70
2019-05-25T11:50:48.135Z,28.40
2019-05-25T11:55:57.011Z,28.30
2019-05-25T12:01:05.821Z,29.40
2019-05-25T12:06:14.541Z,30.00
2019-05-25T12:11:23.259Z,30.90
2019-05-25T12:16:32.035Z,31.50
2019-05-25T12:21:40.877Z,32.90
2019-05-25T12:26:49.689Z,33.60
2019-05-25T12:32:04.181Z,33.50
2019-05-25T12:37:07.556Z,34.60
2019-05-25T12:42:16.253Z,34.10
2019-05-25T12:47:25.099Z,31.60
2019-05-25T12:52:33.910Z,30.80
2019-05-25T12:57:42.751Z,32.50
2019-05-25T13:02:51.621Z,32.80
2019-05-25T13:08:00.525Z,40.60
2019-05-25T13:13:09.173Z,41.70
2019-05-25T13:18:17.806Z,45.60
2019-05-25T13:23:26.486Z,45.10
2019-05-25T13:28:35.281Z,48.90
2019-05-25T13:33:43.971Z,44.60
2019-05-25T13:38:52.874Z,39.90
2019-05-25T13:44:01.558Z,39.80
2019-05-25T13:49:10.355Z,39.20
2019-05-25T13:54:19.083Z,35.40
2019-05-25T13:59:27.744Z,33.90
2019-05-25T14:04:36.433Z,33.60
2019-05-25T14:09:45.155Z,35.10
2019-05-25T14:14:53.822Z,35.70
2019-05-25T14:20:02.954Z,37.10
2019-05-25T14:25:11.886Z,38.10
2019-05-25T14:30:20.657Z,38.10
2019-05-25T14:35:29.491Z,40.40
2019-05-25T14:40:38.177Z,40.60
2019-05-25T14:45:47.193Z,42.70
2019-05-25T14:50:56.067Z,43.80
2019-05-25T14:56:04.821Z,43.40
2019-05-25T15:01:13.663Z,43.30
2019-05-25T15:06:22.597Z,43.60
2019-05-25T15:11:31.468Z,43.00
2019-05-25T15:16:40.289Z,42.80
2019-05-25T15:21:49.271Z,42.60
2019-05-25T15:26:57.968Z,42.50
2019-05-25T15:32:19.657Z,40.60
2019-05-25T15:37:15.659Z,40.20
2019-05-25T15:42:24.313Z,39.10
2019-05-25T15:47:33.105Z,38.20
2019-05-25T15:52:41.991Z,38.60
2019-05-25T15:57:50.837Z,38.50
2019-05-25T16:02:59.545Z,39.30
2019-05-25T16:08:08.239Z,40.50
2019-05-25T16:13:16.933Z,40.20
2019-05-25T16:18:25.657Z,39.90
2019-05-25T16:23:34.517Z,39.20
2019-05-25T16:28:43.331Z,35.70
2019-05-25T16:33:52.019Z,36.50
2019-05-25T16:39:00.916Z,34.50
2019-05-25T16:44:09.699Z,35.60
2019-05-25T16:49:18.554Z,36.70
2019-05-25T16:54:27.387Z,38.20
2019-05-25T16:59:36.130Z,36.60
2019-05-25T17:04:44.977Z,37.50
2019-05-25T17:09:53.783Z,40.50
2019-05-25T17:15:02.615Z,42.10
2019-05-25T17:20:11.502Z,43.70
2019-05-25T17:25:20.320Z,44.00
2019-05-25T17:30:39.146Z,44.30
2019-05-25T17:35:48.007Z,44.30
2019-05-25T17:40:56.810Z,43.90
2019-05-25T17:46:05.595Z,45.20
2019-05-25T17:51:14.622Z,46.20
2019-05-25T17:56:23.619Z,47.20
2019-05-25T18:01:32.286Z,46.80
2019-05-25T18:06:40.921Z,47.30
2019-05-25T18:11:49.875Z,46.90
2019-05-25T18:16:58.714Z,47.50
2019-05-25T18:22:07.511Z,47.80
2019-05-25T18:27:16.248Z,48.20
2019-05-25T18:32:25.073Z,48.50
2019-05-25T18:37:33.971Z,48.50
2019-05-25T18:42:42.762Z,48.50
2019-05-25T18:47:51.419Z,48.80
2019-05-25T18:53:00.191Z,48.80
2019-05-25T18:58:09.005Z,49.10
2019-05-25T19:03:17.709Z,49.30
2019-05-25T19:08:26.505Z,49.30
2019-05-25T19:13:35.277Z,49.70
2019-05-25T19:18:44.156Z,50.00
2019-05-25T19:23:52.739Z,50.10
2019-05-25T19:29:05.342Z,50.00
2019-05-25T19:34:10.513Z,50.50
2019-05-25T19:39:19.201Z,50.70
2019-05-25T19:44:28.021Z,50.90
2019-05-25T19:49:36.839Z,51.50
2019-05-25T19:54:45.653Z,51.70
2019-05-25T19:59:54.385Z,52.10
2019-05-25T20:05:15.603Z,52.30
2019-05-25T20:10:12.489Z,52.50
2019-05-25T20:15:21.313Z,52.70
2019-05-25T20:20:30.126Z,53.50
2019-05-25T20:25:38.707Z,53.90
2019-05-25T20:30:47.495Z,54.10
2019-05-25T20:35:56.461Z,54.00
2019-05-25T20:41:05.115Z,53.90
2019-05-25T20:46:13.911Z,53.70
2019-05-25T20:51:22.747Z,54.10
2019-05-25T20:56:31.549Z,54.20
2019-05-25T21:01:40.691Z,54.20
2019-05-25T21:06:49.421Z,54.20
2019-05-25T21:11:58.227Z,54.50
2019-05-25T21:17:07.154Z,54.80
2019-05-25T21:22:16.010Z,55.00
2019-05-25T21:27:24.973Z,54.80
2019-05-25T21:32:33.595Z,55.00
2019-05-25T21:37:42.431Z,55.50
2019-05-25T21:42:51.293Z,55.60
2019-05-25T21:48:00.129Z,55.60
2019-05-25T21:53:11.131Z,55.70
2019-05-25T21:58:17.859Z,55.70
2019-05-25T22:03:26.730Z,55.50
2019-05-25T22:08:35.585Z,55.80
2019-05-25T22:13:44.409Z,56.10
2019-05-25T22:18:53.189Z,56.10
2019-05-25T22:24:01.815Z,56.30
2019-05-25T22:29:10.724Z,56.10
2019-05-25T22:34:19.576Z,56.60
2019-05-25T22:39:28.341Z,56.90
2019-05-25T22:44:37.232Z,56.70
2019-05-25T22:49:46.031Z,56.60
2019-05-25T22:54:54.708Z,56.60
2019-05-25T23:00:05.506Z,56.80
2019-05-25T23:05:14.121Z,56.90
2019-05-25T23:10:23.026Z,56.60
2019-05-25T23:15:31.818Z,57.30
2019-05-25T23:20:40.589Z,57.10
2019-05-25T23:25:49.455Z,57.10
2019-05-25T23:30:58.292Z,57.50
2019-05-25T23:36:06.845Z,57.40
2019-05-25T23:41:15.713Z,57.90
2019-05-25T23:46:24.595Z,57.70
2019-05-25T23:51:33.478Z,57.90
2019-05-25T23:56:42.257Z,57.90
